sensor_id;sensor_type;location;lat;lon;timestamp;temperature;humidity
46091;DHT22;31826;53.572;10.170;2022-09-09T00:04:41;14.30;99.90
46091;DHT22;31826;53.572;10.170;2022-09-09T00:10:00;14.30;99.90
46091;DHT22;31826;53.572;10.170;2022-09-09T00:12:36;14.30;99.90
46091;DHT22;31826;53.572;10.170;2022-09-09T00:15:12;14.20;99.90
46091;DHT22;31826;53.572;10.170;2022-09-09T00:17:46;14.20;99.90
46091;DHT22;31826;53.572;10.170;2022-09-09T00:23:27;14.20;99.90
46091;DHT22;31826;53.572;10.170;2022-09-09T00:31:33;14.10;99.90
46091;DHT22;31826;53.572;10.170;2022-09-09T00:34:24;13.90;99.90
46091;DHT22;31826;53.572;10.170;2022-09-09T00:36:50;14.00;99.90
46091;DHT22;31826;53.572;10.170;2022-09-09T00:39:38;14.00;99.90
46091;DHT22;31826;53.572;10.170;2022-09-09T00:45:54;13.90;99.90
46091;DHT22;31826;53.572;10.170;2022-09-09T00:47:53;13.80;99.90
46091;DHT22;31826;53.572;10.170;2022-09-09T00:50:46;13.90;99.90
46091;DHT22;31826;53.572;10.170;2022-09-09T00:56:18;13.80;99.90
46091;DHT22;31826;53.572;10.170;2022-09-09T01:01:54;13.90;99.90
46091;DHT22;31826;53.572;10.170;2022-09-09T01:04:29;13.90;99.90
46091;DHT22;31826;53.572;10.170;2022-09-09T01:07:03;13.80;99.90
46091;DHT22;31826;53.572;10.170;2022-09-09T01:09:56;13.80;99.90
46091;DHT22;31826;53.572;10.170;2022-09-09T01:12:38;13.90;99.90
46091;DHT22;31826;53.572;10.170;2022-09-09T01:15:26;13.90;99.90
46091;DHT22;31826;53.572;10.170;2022-09-09T01:18:10;13.80;99.90
46091;DHT22;31826;53.572;10.170;2022-09-09T01:23:59;13.80;99.90
46091;DHT22;31826;53.572;10.170;2022-09-09T01:26:39;13.80;99.90
46091;DHT22;31826;53.572;10.170;2022-09-09T01:29:15;13.90;99.90
46091;DHT22;31826;53.572;10.170;2022-09-09T01:31:55;14.00;99.90
46091;DHT22;31826;53.572;10.170;2022-09-09T01:34:23;13.90;99.90
46091;DHT22;31826;53.572;10.170;2022-09-09T01:39:33;14.00;99.90
46091;DHT22;31826;53.572;10.170;2022-09-09T01:42:01;14.00;99.90
46091;DHT22;31826;53.572;10.170;2022-09-09T01:44:28;13.90;99.90
46091;DHT22;31826;53.572;10.170;2022-09-09T01:46:54;13.90;99.90
46091;DHT22;31826;53.572;10.170;2022-09-09T01:49:21;13.90;99.90
46091;DHT22;31826;53.572;10.170;2022-09-09T01:51:50;13.90;99.90
46091;DHT22;31826;53.572;10.170;2022-09-09T01:54:18;13.90;99.90
46091;DHT22;31826;53.572;10.170;2022-09-09T02:04:38;13.90;99.90
46091;DHT22;31826;53.572;10.170;2022-09-09T02:09:47;13.90;99.90
46091;DHT22;31826;53.572;10.170;2022-09-09T02:12:18;14.00;99.90
46091;DHT22;31826;53.572;10.170;2022-09-09T02:14:59;14.00;99.90
46091;DHT22;31826;53.572;10.170;2022-09-09T02:17:30;14.00;99.90
46091;DHT22;31826;53.572;10.170;2022-09-09T02:20:04;14.00;99.90
46091;DHT22;31826;53.572;10.170;2022-09-09T02:22:32;14.10;99.90
46091;DHT22;31826;53.572;10.170;2022-09-09T02:25:00;14.00;99.90
46091;DHT22;31826;53.572;10.170;2022-09-09T02:27:26;14.00;99.90
46091;DHT22;31826;53.572;10.170;2022-09-09T02:29:53;14.10;99.90
46091;DHT22;31826;53.572;10.170;2022-09-09T02:32:23;14.00;99.90
46091;DHT22;31826;53.572;10.170;2022-09-09T02:35:00;14.00;99.90
46091;DHT22;31826;53.572;10.170;2022-09-09T02:37:33;14.00;99.90
46091;DHT22;31826;53.572;10.170;2022-09-09T02:40:02;14.00;99.90
46091;DHT22;31826;53.572;10.170;2022-09-09T02:42:29;14.00;99.90
46091;DHT22;31826;53.572;10.170;2022-09-09T02:44:54;13.90;99.90
46091;DHT22;31826;53.572;10.170;2022-09-09T02:47:30;13.80;99.90
46091;DHT22;31826;53.572;10.170;2022-09-09T02:50:03;13.80;99.90
46091;DHT22;31826;53.572;10.170;2022-09-09T02:52:42;13.80;99.90
46091;DHT22;31826;53.572;10.170;2022-09-09T02:55:38;13.80;99.90
46091;DHT22;31826;53.572;10.170;2022-09-09T02:58:04;13.80;99.90
46091;DHT22;31826;53.572;10.170;2022-09-09T03:00:31;13.80;99.90
46091;DHT22;31826;53.572;10.170;2022-09-09T03:02:58;13.80;99.90
46091;DHT22;31826;53.572;10.170;2022-09-09T03:05:24;13.80;99.90
46091;DHT22;31826;53.572;10.170;2022-09-09T03:07:50;13.90;99.90
46091;DHT22;31826;53.572;10.170;2022-09-09T03:10:16;13.80;99.90
46091;DHT22;31826;53.572;10.170;2022-09-09T03:12:43;13.80;99.90
46091;DHT22;31826;53.572;10.170;2022-09-09T03:15:09;13.80;99.90
46091;DHT22;31826;53.572;10.170;2022-09-09T03:17:35;13.80;99.90
46091;DHT22;31826;53.572;10.170;2022-09-09T03:20:02;13.80;99.90
46091;DHT22;31826;53.572;10.170;2022-09-09T03:22:28;13.70;99.90
46091;DHT22;31826;53.572;10.170;2022-09-09T03:24:54;13.80;99.90
46091;DHT22;31826;53.572;10.170;2022-09-09T03:27:19;13.80;99.90
46091;DHT22;31826;53.572;10.170;2022-09-09T03:29:46;13.80;99.90
46091;DHT22;31826;53.572;10.170;2022-09-09T03:32:12;13.70;99.90
46091;DHT22;31826;53.572;10.170;2022-09-09T03:34:38;13.70;99.90
46091;DHT22;31826;53.572;10.170;2022-09-09T03:37:07;13.70;99.90
46091;DHT22;31826;53.572;10.170;2022-09-09T03:39:33;13.60;99.90
46091;DHT22;31826;53.572;10.170;2022-09-09T03:41:59;13.60;99.90
46091;DHT22;31826;53.572;10.170;2022-09-09T03:44:24;13.50;99.90
46091;DHT22;31826;53.572;10.170;2022-09-09T03:46:50;13.50;99.90
46091;DHT22;31826;53.572;10.170;2022-09-09T03:49:16;13.50;99.90
46091;DHT22;31826;53.572;10.170;2022-09-09T03:51:42;13.50;99.90
46091;DHT22;31826;53.572;10.170;2022-09-09T03:54:07;13.50;99.90
46091;DHT22;31826;53.572;10.170;2022-09-09T03:56:34;13.50;99.90
46091;DHT22;31826;53.572;10.170;2022-09-09T03:59:00;13.50;99.90
46091;DHT22;31826;53.572;10.170;2022-09-09T04:01:27;13.50;99.90
46091;DHT22;31826;53.572;10.170;2022-09-09T04:03:53;13.50;99.90
46091;DHT22;31826;53.572;10.170;2022-09-09T04:06:20;13.40;99.90
46091;DHT22;31826;53.572;10.170;2022-09-09T04:08:46;13.50;99.90
46091;DHT22;31826;53.572;10.170;2022-09-09T04:11:15;13.40;99.90
46091;DHT22;31826;53.572;10.170;2022-09-09T04:13:41;13.30;99.90
46091;DHT22;31826;53.572;10.170;2022-09-09T04:16:09;13.40;99.90
46091;DHT22;31826;53.572;10.170;2022-09-09T04:18:35;13.40;99.90
46091;DHT22;31826;53.572;10.170;2022-09-09T04:21:01;13.40;99.90
46091;DHT22;31826;53.572;10.170;2022-09-09T04:23:29;13.30;99.90
46091;DHT22;31826;53.572;10.170;2022-09-09T04:25:56;13.40;99.90
46091;DHT22;31826;53.572;10.170;2022-09-09T04:28:24;13.40;99.90
46091;DHT22;31826;53.572;10.170;2022-09-09T04:30:50;13.40;99.90
46091;DHT22;31826;53.572;10.170;2022-09-09T04:33:16;13.40;99.90
46091;DHT22;31826;53.572;10.170;2022-09-09T04:35:49;13.30;99.90
46091;DHT22;31826;53.572;10.170;2022-09-09T04:38:16;13.40;99.90
46091;DHT22;31826;53.572;10.170;2022-09-09T04:40:50;13.40;99.90
46091;DHT22;31826;53.572;10.170;2022-09-09T04:43:17;13.40;99.90
46091;DHT22;31826;53.572;10.170;2022-09-09T04:45:47;13.40;99.90
46091;DHT22;31826;53.572;10.170;2022-09-09T04:48:13;13.40;99.90
46091;DHT22;31826;53.572;10.170;2022-09-09T04:50:39;13.40;99.90
46091;DHT22;31826;53.572;10.170;2022-09-09T04:53:08;13.40;99.90
46091;DHT22;31826;53.572;10.170;2022-09-09T04:55:34;13.40;99.90
46091;DHT22;31826;53.572;10.170;2022-09-09T04:58:07;13.40;99.90
46091;DHT22;31826;53.572;10.170;2022-09-09T05:00:34;13.50;99.90
46091;DHT22;31826;53.572;10.170;2022-09-09T05:03:05;13.50;99.90
46091;DHT22;31826;53.572;10.170;2022-09-09T05:05:32;13.50;99.90
46091;DHT22;31826;53.572;10.170;2022-09-09T05:08:05;13.40;99.90
46091;DHT22;31826;53.572;10.170;2022-09-09T05:10:32;13.40;99.90
46091;DHT22;31826;53.572;10.170;2022-09-09T05:12:58;13.40;99.90
46091;DHT22;31826;53.572;10.170;2022-09-09T05:15:24;13.40;99.90
46091;DHT22;31826;53.572;10.170;2022-09-09T05:17:49;13.40;99.90
46091;DHT22;31826;53.572;10.170;2022-09-09T05:20:16;13.40;99.90
46091;DHT22;31826;53.572;10.170;2022-09-09T05:22:42;13.40;99.90
46091;DHT22;31826;53.572;10.170;2022-09-09T05:25:08;13.40;99.90
46091;DHT22;31826;53.572;10.170;2022-09-09T05:27:34;13.40;99.90
46091;DHT22;31826;53.572;10.170;2022-09-09T05:30:00;13.40;99.90
46091;DHT22;31826;53.572;10.170;2022-09-09T05:32:26;13.40;99.90
46091;DHT22;31826;53.572;10.170;2022-09-09T05:34:51;13.40;99.90
46091;DHT22;31826;53.572;10.170;2022-09-09T05:37:18;13.40;99.90
46091;DHT22;31826;53.572;10.170;2022-09-09T05:39:44;13.40;99.90
46091;DHT22;31826;53.572;10.170;2022-09-09T05:42:09;13.50;99.90
46091;DHT22;31826;53.572;10.170;2022-09-09T05:44:35;13.40;99.90
46091;DHT22;31826;53.572;10.170;2022-09-09T05:47:01;13.40;99.90
46091;DHT22;31826;53.572;10.170;2022-09-09T05:49:27;13.40;99.90
46091;DHT22;31826;53.572;10.170;2022-09-09T05:51:52;13.50;99.90
46091;DHT22;31826;53.572;10.170;2022-09-09T05:54:19;13.50;99.90
46091;DHT22;31826;53.572;10.170;2022-09-09T05:56:45;13.60;99.90
46091;DHT22;31826;53.572;10.170;2022-09-09T05:59:10;13.60;99.90
46091;DHT22;31826;53.572;10.170;2022-09-09T06:01:37;13.60;99.90
46091;DHT22;31826;53.572;10.170;2022-09-09T06:04:06;13.70;99.90
46091;DHT22;31826;53.572;10.170;2022-09-09T06:06:35;13.70;99.90
46091;DHT22;31826;53.572;10.170;2022-09-09T06:09:03;13.70;99.90
46091;DHT22;31826;53.572;10.170;2022-09-09T06:11:32;13.70;99.90
46091;DHT22;31826;53.572;10.170;2022-09-09T06:13:58;13.70;99.90
46091;DHT22;31826;53.572;10.170;2022-09-09T06:16:26;13.70;99.90
46091;DHT22;31826;53.572;10.170;2022-09-09T06:18:56;13.80;99.90
46091;DHT22;31826;53.572;10.170;2022-09-09T06:21:31;13.90;99.90
46091;DHT22;31826;53.572;10.170;2022-09-09T06:23:58;14.00;99.90
46091;DHT22;31826;53.572;10.170;2022-09-09T06:26:31;14.10;99.90
46091;DHT22;31826;53.572;10.170;2022-09-09T06:28:58;14.10;99.90
46091;DHT22;31826;53.572;10.170;2022-09-09T06:31:26;14.20;99.90
46091;DHT22;31826;53.572;10.170;2022-09-09T06:33:56;14.30;99.90
46091;DHT22;31826;53.572;10.170;2022-09-09T06:36:24;14.40;99.90
46091;DHT22;31826;53.572;10.170;2022-09-09T06:38:50;14.40;99.90
46091;DHT22;31826;53.572;10.170;2022-09-09T06:41:18;14.40;99.90
46091;DHT22;31826;53.572;10.170;2022-09-09T06:43:44;14.40;99.90
46091;DHT22;31826;53.572;10.170;2022-09-09T06:46:13;14.40;99.90
46091;DHT22;31826;53.572;10.170;2022-09-09T06:48:39;14.40;99.90
46091;DHT22;31826;53.572;10.170;2022-09-09T06:51:24;14.50;99.90
46091;DHT22;31826;53.572;10.170;2022-09-09T06:53:53;14.60;99.90
46091;DHT22;31826;53.572;10.170;2022-09-09T06:58:49;14.70;99.90
46091;DHT22;31826;53.572;10.170;2022-09-09T07:01:17;14.90;99.90
46091;DHT22;31826;53.572;10.170;2022-09-09T07:03:47;15.00;99.90
46091;DHT22;31826;53.572;10.170;2022-09-09T07:06:25;15.10;99.90
46091;DHT22;31826;53.572;10.170;2022-09-09T07:08:52;15.30;99.90
46091;DHT22;31826;53.572;10.170;2022-09-09T07:11:20;15.40;99.90
46091;DHT22;31826;53.572;10.170;2022-09-09T07:13:46;15.50;99.90
46091;DHT22;31826;53.572;10.170;2022-09-09T07:16:16;15.60;99.90
46091;DHT22;31826;53.572;10.170;2022-09-09T07:18:43;15.50;99.90
46091;DHT22;31826;53.572;10.170;2022-09-09T07:21:11;15.50;99.90
46091;DHT22;31826;53.572;10.170;2022-09-09T07:23:40;15.50;99.90
46091;DHT22;31826;53.572;10.170;2022-09-09T07:26:15;15.40;99.90
46091;DHT22;31826;53.572;10.170;2022-09-09T07:28:42;15.40;99.90
46091;DHT22;31826;53.572;10.170;2022-09-09T07:31:15;15.40;99.90
46091;DHT22;31826;53.572;10.170;2022-09-09T07:33:42;15.40;99.90
46091;DHT22;31826;53.572;10.170;2022-09-09T07:36:10;15.60;99.90
46091;DHT22;31826;53.572;10.170;2022-09-09T07:38:42;15.60;99.90
46091;DHT22;31826;53.572;10.170;2022-09-09T07:41:14;15.50;99.90
46091;DHT22;31826;53.572;10.170;2022-09-09T07:43:45;15.60;99.90
46091;DHT22;31826;53.572;10.170;2022-09-09T07:46:13;15.70;99.90
46091;DHT22;31826;53.572;10.170;2022-09-09T07:48:43;15.80;99.90
46091;DHT22;31826;53.572;10.170;2022-09-09T07:51:15;16.00;99.90
46091;DHT22;31826;53.572;10.170;2022-09-09T07:53:44;16.10;99.90
46091;DHT22;31826;53.572;10.170;2022-09-09T07:56:15;16.00;99.90
46091;DHT22;31826;53.572;10.170;2022-09-09T07:58:46;15.90;99.90
46091;DHT22;31826;53.572;10.170;2022-09-09T08:01:14;16.20;99.90
46091;DHT22;31826;53.572;10.170;2022-09-09T08:03:42;16.50;99.90
46091;DHT22;31826;53.572;10.170;2022-09-09T08:06:08;16.70;99.90
46091;DHT22;31826;53.572;10.170;2022-09-09T08:08:35;16.70;99.90
46091;DHT22;31826;53.572;10.170;2022-09-09T08:11:03;16.90;99.90
46091;DHT22;31826;53.572;10.170;2022-09-09T08:13:30;17.20;99.90
46091;DHT22;31826;53.572;10.170;2022-09-09T08:16:04;17.20;99.90
46091;DHT22;31826;53.572;10.170;2022-09-09T08:18:30;17.10;99.90
46091;DHT22;31826;53.572;10.170;2022-09-09T08:20:55;16.90;99.90
46091;DHT22;31826;53.572;10.170;2022-09-09T08:23:21;16.90;99.90
46091;DHT22;31826;53.572;10.170;2022-09-09T08:25:47;16.70;99.90
46091;DHT22;31826;53.572;10.170;2022-09-09T08:28:14;16.70;99.90
46091;DHT22;31826;53.572;10.170;2022-09-09T08:30:39;16.50;99.90
46091;DHT22;31826;53.572;10.170;2022-09-09T08:33:05;16.50;99.90
46091;DHT22;31826;53.572;10.170;2022-09-09T08:35:31;16.70;99.90
46091;DHT22;31826;53.572;10.170;2022-09-09T08:37:57;17.00;99.90
46091;DHT22;31826;53.572;10.170;2022-09-09T08:40:29;17.30;99.90
46091;DHT22;31826;53.572;10.170;2022-09-09T08:43:00;17.40;99.90
46091;DHT22;31826;53.572;10.170;2022-09-09T08:45:34;17.50;99.90
46091;DHT22;31826;53.572;10.170;2022-09-09T08:50:35;17.40;99.90
46091;DHT22;31826;53.572;10.170;2022-09-09T08:53:26;17.40;99.90
46091;DHT22;31826;53.572;10.170;2022-09-09T08:56:00;17.30;99.90
46091;DHT22;31826;53.572;10.170;2022-09-09T08:58:28;17.20;99.90
46091;DHT22;31826;53.572;10.170;2022-09-09T09:01:36;17.20;99.90
46091;DHT22;31826;53.572;10.170;2022-09-09T09:07:16;17.20;99.90
46091;DHT22;31826;53.572;10.170;2022-09-09T09:12:26;17.40;99.90
46091;DHT22;31826;53.572;10.170;2022-09-09T09:14:54;17.50;99.90
46091;DHT22;31826;53.572;10.170;2022-09-09T09:17:25;17.70;99.90
46091;DHT22;31826;53.572;10.170;2022-09-09T09:19:53;18.00;99.90
46091;DHT22;31826;53.572;10.170;2022-09-09T09:30:21;18.10;99.90
46091;DHT22;31826;53.572;10.170;2022-09-09T09:33:14;18.20;99.90
46091;DHT22;31826;53.572;10.170;2022-09-09T09:35:41;18.20;99.90
46091;DHT22;31826;53.572;10.170;2022-09-09T09:38:18;18.20;99.90
46091;DHT22;31826;53.572;10.170;2022-09-09T09:40:53;18.20;99.90
46091;DHT22;31826;53.572;10.170;2022-09-09T09:43:30;18.30;99.90
46091;DHT22;31826;53.572;10.170;2022-09-09T09:45:57;18.20;99.90
46091;DHT22;31826;53.572;10.170;2022-09-09T09:48:24;18.50;99.90
46091;DHT22;31826;53.572;10.170;2022-09-09T09:50:58;18.90;99.90
46091;DHT22;31826;53.572;10.170;2022-09-09T09:53:28;19.10;99.90
46091;DHT22;31826;53.572;10.170;2022-09-09T09:56:09;19.20;99.90
46091;DHT22;31826;53.572;10.170;2022-09-09T10:01:39;19.70;99.90
46091;DHT22;31826;53.572;10.170;2022-09-09T10:04:16;19.80;99.90
46091;DHT22;31826;53.572;10.170;2022-09-09T10:06:44;20.10;99.90
46091;DHT22;31826;53.572;10.170;2022-09-09T10:09:29;20.00;99.90
46091;DHT22;31826;53.572;10.170;2022-09-09T10:18:25;19.30;99.90
46091;DHT22;31826;53.572;10.170;2022-09-09T10:27:01;19.70;99.90
46091;DHT22;31826;53.572;10.170;2022-09-09T10:35:26;21.40;99.90
46091;DHT22;31826;53.572;10.170;2022-09-09T10:38:17;21.90;99.90
46091;DHT22;31826;53.572;10.170;2022-09-09T10:54:37;21.30;99.90
46091;DHT22;31826;53.572;10.170;2022-09-09T10:59:56;21.20;99.90
46091;DHT22;31826;53.572;10.170;2022-09-09T11:02:29;21.00;99.90
46091;DHT22;31826;53.572;10.170;2022-09-09T11:05:00;20.90;99.90
46091;DHT22;31826;53.572;10.170;2022-09-09T11:08:20;20.80;99.90
46091;DHT22;31826;53.572;10.170;2022-09-09T11:13:00;20.80;99.90
46091;DHT22;31826;53.572;10.170;2022-09-09T11:15:36;21.00;99.90
46091;DHT22;31826;53.572;10.170;2022-09-09T11:18:10;21.30;99.90
46091;DHT22;31826;53.572;10.170;2022-09-09T11:20:39;22.10;99.90
46091;DHT22;31826;53.572;10.170;2022-09-09T11:23:15;22.70;99.90
46091;DHT22;31826;53.572;10.170;2022-09-09T11:25:46;22.50;99.90
46091;DHT22;31826;53.572;10.170;2022-09-09T11:28:39;22.30;99.90
46091;DHT22;31826;53.572;10.170;2022-09-09T11:31:39;22.70;99.90
46091;DHT22;31826;53.572;10.170;2022-09-09T11:34:27;22.30;99.90
46091;DHT22;31826;53.572;10.170;2022-09-09T11:42:19;22.20;99.90
46091;DHT22;31826;53.572;10.170;2022-09-09T11:44:46;22.30;99.90
46091;DHT22;31826;53.572;10.170;2022-09-09T11:47:24;22.80;99.90
46091;DHT22;31826;53.572;10.170;2022-09-09T11:49:55;22.60;99.90
46091;DHT22;31826;53.572;10.170;2022-09-09T11:52:22;22.50;99.90
46091;DHT22;31826;53.572;10.170;2022-09-09T11:54:49;21.90;99.90
46091;DHT22;31826;53.572;10.170;2022-09-09T11:57:47;21.10;99.90
46091;DHT22;31826;53.572;10.170;2022-09-09T12:00:41;20.50;99.90
46091;DHT22;31826;53.572;10.170;2022-09-09T12:03:34;20.40;99.90
46091;DHT22;31826;53.572;10.170;2022-09-09T12:06:18;20.60;99.90
46091;DHT22;31826;53.572;10.170;2022-09-09T12:08:50;20.90;99.90
46091;DHT22;31826;53.572;10.170;2022-09-09T12:11:28;20.90;99.90
46091;DHT22;31826;53.572;10.170;2022-09-09T12:13:59;20.90;99.90
46091;DHT22;31826;53.572;10.170;2022-09-09T12:16:32;20.80;99.90
46091;DHT22;31826;53.572;10.170;2022-09-09T12:19:16;21.20;99.90
46091;DHT22;31826;53.572;10.170;2022-09-09T12:22:01;22.00;99.90
46091;DHT22;31826;53.572;10.170;2022-09-09T12:24:42;21.90;99.90
46091;DHT22;31826;53.572;10.170;2022-09-09T12:27:21;21.50;99.90
46091;DHT22;31826;53.572;10.170;2022-09-09T12:30:12;21.00;99.90
46091;DHT22;31826;53.572;10.170;2022-09-09T12:32:40;20.40;99.90
46091;DHT22;31826;53.572;10.170;2022-09-09T12:35:20;20.10;99.90
46091;DHT22;31826;53.572;10.170;2022-09-09T12:38:02;20.10;99.90
46091;DHT22;31826;53.572;10.170;2022-09-09T12:40:33;20.20;99.90
46091;DHT22;31826;53.572;10.170;2022-09-09T12:43:20;20.30;99.90
46091;DHT22;31826;53.572;10.170;2022-09-09T12:45:47;20.20;99.90
46091;DHT22;31826;53.572;10.170;2022-09-09T12:48:18;20.20;99.90
46091;DHT22;31826;53.572;10.170;2022-09-09T12:50:50;20.20;99.90
46091;DHT22;31826;53.572;10.170;2022-09-09T12:53:29;20.00;99.90
46091;DHT22;31826;53.572;10.170;2022-09-09T12:56:04;19.90;99.90
46091;DHT22;31826;53.572;10.170;2022-09-09T12:58:32;19.90;99.90
46091;DHT22;31826;53.572;10.170;2022-09-09T13:00:59;19.90;99.90
46091;DHT22;31826;53.572;10.170;2022-09-09T13:03:26;19.70;99.90
46091;DHT22;31826;53.572;10.170;2022-09-09T13:05:53;19.70;99.90
46091;DHT22;31826;53.572;10.170;2022-09-09T13:08:24;19.70;99.90
46091;DHT22;31826;53.572;10.170;2022-09-09T13:11:00;19.60;99.90
46091;DHT22;31826;53.572;10.170;2022-09-09T13:13:29;19.70;99.90
46091;DHT22;31826;53.572;10.170;2022-09-09T13:15:58;19.50;99.90
46091;DHT22;31826;53.572;10.170;2022-09-09T13:18:30;19.60;99.90
46091;DHT22;31826;53.572;10.170;2022-09-09T13:20:57;19.50;99.90
46091;DHT22;31826;53.572;10.170;2022-09-09T13:23:30;19.30;99.90
46091;DHT22;31826;53.572;10.170;2022-09-09T13:26:01;19.30;99.90
46091;DHT22;31826;53.572;10.170;2022-09-09T13:28:30;19.20;99.90
46091;DHT22;31826;53.572;10.170;2022-09-09T13:31:01;19.20;99.90
46091;DHT22;31826;53.572;10.170;2022-09-09T13:33:35;19.20;99.90
46091;DHT22;31826;53.572;10.170;2022-09-09T13:36:08;19.10;99.90
46091;DHT22;31826;53.572;10.170;2022-09-09T13:39:00;19.00;99.90
46091;DHT22;31826;53.572;10.170;2022-09-09T13:41:45;19.00;99.90
46091;DHT22;31826;53.572;10.170;2022-09-09T13:44:34;18.90;99.90
46091;DHT22;31826;53.572;10.170;2022-09-09T13:49:29;18.90;99.90
46091;DHT22;31826;53.572;10.170;2022-09-09T13:52:09;18.90;99.90
46091;DHT22;31826;53.572;10.170;2022-09-09T13:54:35;19.00;99.90
46091;DHT22;31826;53.572;10.170;2022-09-09T13:57:01;19.00;99.90
46091;DHT22;31826;53.572;10.170;2022-09-09T13:59:27;18.90;99.90
46091;DHT22;31826;53.572;10.170;2022-09-09T14:01:53;18.80;99.90
46091;DHT22;31826;53.572;10.170;2022-09-09T14:04:19;18.60;99.90
46091;DHT22;31826;53.572;10.170;2022-09-09T14:06:47;18.50;99.90
46091;DHT22;31826;53.572;10.170;2022-09-09T14:09:15;18.30;99.90
46091;DHT22;31826;53.572;10.170;2022-09-09T14:11:41;18.20;99.90
46091;DHT22;31826;53.572;10.170;2022-09-09T14:14:08;18.10;99.90
46091;DHT22;31826;53.572;10.170;2022-09-09T14:16:34;18.00;99.90
46091;DHT22;31826;53.572;10.170;2022-09-09T14:19:00;17.90;99.90
46091;DHT22;31826;53.572;10.170;2022-09-09T14:21:27;17.80;99.90
46091;DHT22;31826;53.572;10.170;2022-09-09T14:23:54;17.70;99.90
46091;DHT22;31826;53.572;10.170;2022-09-09T14:26:21;17.70;99.90
46091;DHT22;31826;53.572;10.170;2022-09-09T14:28:47;17.60;99.90
46091;DHT22;31826;53.572;10.170;2022-09-09T14:31:13;17.70;99.90
46091;DHT22;31826;53.572;10.170;2022-09-09T14:33:40;17.70;99.90
46091;DHT22;31826;53.572;10.170;2022-09-09T14:36:06;17.70;99.90
46091;DHT22;31826;53.572;10.170;2022-09-09T14:38:35;17.50;99.90
46091;DHT22;31826;53.572;10.170;2022-09-09T14:41:13;17.40;99.90
46091;DHT22;31826;53.572;10.170;2022-09-09T14:43:42;17.40;99.90
46091;DHT22;31826;53.572;10.170;2022-09-09T14:46:11;17.30;99.90
46091;DHT22;31826;53.572;10.170;2022-09-09T14:48:37;17.20;99.90
46091;DHT22;31826;53.572;10.170;2022-09-09T14:51:13;17.10;99.90
46091;DHT22;31826;53.572;10.170;2022-09-09T14:53:41;17.10;99.90
46091;DHT22;31826;53.572;10.170;2022-09-09T14:56:09;17.00;99.90
46091;DHT22;31826;53.572;10.170;2022-09-09T14:58:36;16.90;99.90
46091;DHT22;31826;53.572;10.170;2022-09-09T15:01:11;16.90;99.90
46091;DHT22;31826;53.572;10.170;2022-09-09T15:03:39;16.90;99.90
46091;DHT22;31826;53.572;10.170;2022-09-09T15:06:10;16.80;99.90
46091;DHT22;31826;53.572;10.170;2022-09-09T15:08:37;16.70;99.90
46091;DHT22;31826;53.572;10.170;2022-09-09T15:11:05;16.60;99.90
46091;DHT22;31826;53.572;10.170;2022-09-09T15:13:33;16.60;99.90
46091;DHT22;31826;53.572;10.170;2022-09-09T15:18:31;16.50;99.90
46091;DHT22;31826;53.572;10.170;2022-09-09T15:20:59;16.40;99.90
46091;DHT22;31826;53.572;10.170;2022-09-09T15:23:28;16.50;99.90
46091;DHT22;31826;53.572;10.170;2022-09-09T15:25:56;16.40;99.90
46091;DHT22;31826;53.572;10.170;2022-09-09T15:28:22;16.40;99.90
46091;DHT22;31826;53.572;10.170;2022-09-09T15:30:49;16.40;99.90
46091;DHT22;31826;53.572;10.170;2022-09-09T15:33:17;16.50;99.90
46091;DHT22;31826;53.572;10.170;2022-09-09T15:35:43;16.50;99.90
46091;DHT22;31826;53.572;10.170;2022-09-09T15:38:08;16.60;99.90
46091;DHT22;31826;53.572;10.170;2022-09-09T15:40:34;16.60;99.90
46091;DHT22;31826;53.572;10.170;2022-09-09T15:43:00;16.60;99.90
46091;DHT22;31826;53.572;10.170;2022-09-09T15:45:26;16.60;99.90
46091;DHT22;31826;53.572;10.170;2022-09-09T15:47:57;16.60;99.90
46091;DHT22;31826;53.572;10.170;2022-09-09T15:50:23;16.80;99.90
46091;DHT22;31826;53.572;10.170;2022-09-09T15:52:49;16.80;99.90
46091;DHT22;31826;53.572;10.170;2022-09-09T15:55:14;16.80;99.90
46091;DHT22;31826;53.572;10.170;2022-09-09T15:57:40;16.90;99.90
46091;DHT22;31826;53.572;10.170;2022-09-09T16:00:06;17.00;99.90
46091;DHT22;31826;53.572;10.170;2022-09-09T16:02:32;16.90;99.90
46091;DHT22;31826;53.572;10.170;2022-09-09T16:04:58;16.90;99.90
46091;DHT22;31826;53.572;10.170;2022-09-09T16:07:24;16.90;99.90
46091;DHT22;31826;53.572;10.170;2022-09-09T16:09:50;16.90;99.90
46091;DHT22;31826;53.572;10.170;2022-09-09T16:12:18;16.90;99.90
46091;DHT22;31826;53.572;10.170;2022-09-09T16:14:44;16.90;99.90
46091;DHT22;31826;53.572;10.170;2022-09-09T16:17:11;17.00;99.90
46091;DHT22;31826;53.572;10.170;2022-09-09T16:19:37;17.10;99.90
46091;DHT22;31826;53.572;10.170;2022-09-09T16:22:04;17.20;99.90
46091;DHT22;31826;53.572;10.170;2022-09-09T16:24:30;17.20;99.90
46091;DHT22;31826;53.572;10.170;2022-09-09T16:26:55;17.30;99.90
46091;DHT22;31826;53.572;10.170;2022-09-09T16:29:22;17.10;99.90
46091;DHT22;31826;53.572;10.170;2022-09-09T16:31:48;17.10;99.90
46091;DHT22;31826;53.572;10.170;2022-09-09T16:34:16;17.10;99.90
46091;DHT22;31826;53.572;10.170;2022-09-09T16:36:43;17.10;99.90
46091;DHT22;31826;53.572;10.170;2022-09-09T16:39:12;17.20;99.90
46091;DHT22;31826;53.572;10.170;2022-09-09T16:41:39;17.20;99.90
46091;DHT22;31826;53.572;10.170;2022-09-09T16:44:07;17.30;99.90
46091;DHT22;31826;53.572;10.170;2022-09-09T16:46:35;17.50;99.90
46091;DHT22;31826;53.572;10.170;2022-09-09T16:49:03;17.40;99.90
46091;DHT22;31826;53.572;10.170;2022-09-09T16:51:35;17.50;99.90
46091;DHT22;31826;53.572;10.170;2022-09-09T16:54:03;17.40;99.90
46091;DHT22;31826;53.572;10.170;2022-09-09T16:56:31;17.40;99.90
46091;DHT22;31826;53.572;10.170;2022-09-09T16:59:04;17.40;99.90
46091;DHT22;31826;53.572;10.170;2022-09-09T17:01:33;17.40;99.90
46091;DHT22;31826;53.572;10.170;2022-09-09T17:04:02;17.30;99.90
46091;DHT22;31826;53.572;10.170;2022-09-09T17:06:29;17.30;99.90
46091;DHT22;31826;53.572;10.170;2022-09-09T17:09:00;17.20;99.90
46091;DHT22;31826;53.572;10.170;2022-09-09T17:11:27;17.30;99.90
46091;DHT22;31826;53.572;10.170;2022-09-09T17:13:53;17.10;99.90
46091;DHT22;31826;53.572;10.170;2022-09-09T17:16:21;17.10;99.90
46091;DHT22;31826;53.572;10.170;2022-09-09T17:18:51;17.00;99.90
46091;DHT22;31826;53.572;10.170;2022-09-09T17:21:19;17.00;99.90
46091;DHT22;31826;53.572;10.170;2022-09-09T17:23:46;16.90;99.90
46091;DHT22;31826;53.572;10.170;2022-09-09T17:26:14;16.90;99.90